sensor_id;sensor_type;location;lat;lon;timestamp;P1;durP1;ratioP1;P2;durP2;ratioP2
55720;SDS011;41626;53.098;6.168;2023-04-03T00:01:31;1.10;;;0.70;;
55720;SDS011;41626;53.098;6.168;2023-04-03T00:03:57;3.92;;;0.70;;
55720;SDS011;41626;53.098;6.168;2023-04-03T00:06:23;2.65;;;1.13;;
55720;SDS011;41626;53.098;6.168;2023-04-03T00:08:50;3.40;;;0.60;;
55720;SDS011;41626;53.098;6.168;2023-04-03T00:11:16;3.10;;;0.98;;
55720;SDS011;41626;53.098;6.168;2023-04-03T00:13:43;4.82;;;0.93;;
55720;SDS011;41626;53.098;6.168;2023-04-03T00:16:09;2.17;;;0.40;;
55720;SDS011;41626;53.098;6.168;2023-04-03T00:18:36;1.35;;;0.50;;
55720;SDS011;41626;53.098;6.168;2023-04-03T00:21:03;2.25;;;0.80;;
55720;SDS011;41626;53.098;6.168;2023-04-03T00:23:29;2.42;;;0.93;;
55720;SDS011;41626;53.098;6.168;2023-04-03T00:25:55;3.37;;;0.80;;
55720;SDS011;41626;53.098;6.168;2023-04-03T00:28:21;1.27;;;0.67;;
55720;SDS011;41626;53.098;6.168;2023-04-03T00:30:48;2.90;;;0.60;;
55720;SDS011;41626;53.098;6.168;2023-04-03T00:33:15;2.28;;;0.63;;
55720;SDS011;41626;53.098;6.168;2023-04-03T00:35:41;1.87;;;0.60;;
55720;SDS011;41626;53.098;6.168;2023-04-03T00:38:07;3.47;;;0.68;;
55720;SDS011;41626;53.098;6.168;2023-04-03T00:40:39;5.57;;;0.75;;
55720;SDS011;41626;53.098;6.168;2023-04-03T00:43:12;2.75;;;0.73;;
55720;SDS011;41626;53.098;6.168;2023-04-03T00:45:50;2.90;;;0.70;;
55720;SDS011;41626;53.098;6.168;2023-04-03T00:48:24;2.05;;;0.70;;
55720;SDS011;41626;53.098;6.168;2023-04-03T00:50:57;3.10;;;0.77;;
55720;SDS011;41626;53.098;6.168;2023-04-03T00:53:46;2.58;;;0.80;;
55720;SDS011;41626;53.098;6.168;2023-04-03T00:56:15;3.58;;;0.85;;
55720;SDS011;41626;53.098;6.168;2023-04-03T00:58:51;4.15;;;0.77;;
55720;SDS011;41626;53.098;6.168;2023-04-03T01:03:54;3.20;;;1.30;;
55720;SDS011;41626;53.098;6.168;2023-04-03T01:06:21;2.20;;;1.20;;
55720;SDS011;41626;53.098;6.168;2023-04-03T01:08:51;3.22;;;0.90;;
55720;SDS011;41626;53.098;6.168;2023-04-03T01:11:18;3.65;;;0.90;;
55720;SDS011;41626;53.098;6.168;2023-04-03T01:13:45;1.67;;;0.60;;
55720;SDS011;41626;53.098;6.168;2023-04-03T01:16:11;2.35;;;0.82;;
55720;SDS011;41626;53.098;6.168;2023-04-03T01:18:37;2.37;;;0.90;;
55720;SDS011;41626;53.098;6.168;2023-04-03T01:26:28;2.83;;;0.80;;
55720;SDS011;41626;53.098;6.168;2023-04-03T01:28:54;2.92;;;0.90;;
55720;SDS011;41626;53.098;6.168;2023-04-03T01:31:25;3.78;;;0.82;;
55720;SDS011;41626;53.098;6.168;2023-04-03T01:33:51;2.42;;;0.60;;
55720;SDS011;41626;53.098;6.168;2023-04-03T01:36:19;4.20;;;0.80;;
55720;SDS011;41626;53.098;6.168;2023-04-03T01:38:47;4.03;;;1.23;;
55720;SDS011;41626;53.098;6.168;2023-04-03T01:41:13;3.97;;;1.00;;
55720;SDS011;41626;53.098;6.168;2023-04-03T01:43:40;4.20;;;1.30;;
55720;SDS011;41626;53.098;6.168;2023-04-03T01:46:06;2.72;;;1.10;;
55720;SDS011;41626;53.098;6.168;2023-04-03T01:48:32;3.25;;;0.82;;
55720;SDS011;41626;53.098;6.168;2023-04-03T01:50:58;4.28;;;1.17;;
55720;SDS011;41626;53.098;6.168;2023-04-03T01:53:24;3.47;;;0.90;;
55720;SDS011;41626;53.098;6.168;2023-04-03T01:55:50;7.40;;;2.40;;
55720;SDS011;41626;53.098;6.168;2023-04-03T01:58:16;3.20;;;0.90;;
55720;SDS011;41626;53.098;6.168;2023-04-03T02:00:42;2.22;;;0.70;;
55720;SDS011;41626;53.098;6.168;2023-04-03T02:03:07;3.55;;;1.40;;
55720;SDS011;41626;53.098;6.168;2023-04-03T02:05:33;4.43;;;1.00;;
55720;SDS011;41626;53.098;6.168;2023-04-03T02:07:59;5.23;;;1.27;;
55720;SDS011;41626;53.098;6.168;2023-04-03T02:10:25;3.13;;;1.10;;
55720;SDS011;41626;53.098;6.168;2023-04-03T02:12:50;5.28;;;1.20;;
55720;SDS011;41626;53.098;6.168;2023-04-03T02:15:16;5.45;;;1.60;;
55720;SDS011;41626;53.098;6.168;2023-04-03T02:17:42;3.40;;;1.00;;
55720;SDS011;41626;53.098;6.168;2023-04-03T02:20:08;4.90;;;1.27;;
55720;SDS011;41626;53.098;6.168;2023-04-03T02:22:34;3.80;;;1.50;;
55720;SDS011;41626;53.098;6.168;2023-04-03T02:25:00;4.95;;;1.50;;
55720;SDS011;41626;53.098;6.168;2023-04-03T02:27:26;4.50;;;1.42;;
55720;SDS011;41626;53.098;6.168;2023-04-03T02:29:52;3.92;;;1.48;;
55720;SDS011;41626;53.098;6.168;2023-04-03T02:32:18;3.65;;;1.05;;
55720;SDS011;41626;53.098;6.168;2023-04-03T02:34:43;3.80;;;1.23;;
55720;SDS011;41626;53.098;6.168;2023-04-03T02:37:09;5.63;;;1.80;;
55720;SDS011;41626;53.098;6.168;2023-04-03T02:39:35;5.57;;;1.10;;
55720;SDS011;41626;53.098;6.168;2023-04-03T02:42:01;5.20;;;1.50;;
55720;SDS011;41626;53.098;6.168;2023-04-03T02:44:26;5.72;;;1.48;;
55720;SDS011;41626;53.098;6.168;2023-04-03T02:46:52;3.47;;;1.40;;
55720;SDS011;41626;53.098;6.168;2023-04-03T02:49:18;3.00;;;1.00;;
55720;SDS011;41626;53.098;6.168;2023-04-03T02:51:43;2.17;;;0.90;;
55720;SDS011;41626;53.098;6.168;2023-04-03T02:54:10;6.35;;;1.60;;
55720;SDS011;41626;53.098;6.168;2023-04-03T02:56:36;4.75;;;1.35;;
55720;SDS011;41626;53.098;6.168;2023-04-03T02:59:02;3.95;;;1.10;;
55720;SDS011;41626;53.098;6.168;2023-04-03T03:01:28;3.55;;;1.33;;
55720;SDS011;41626;53.098;6.168;2023-04-03T03:03:56;6.32;;;1.60;;
55720;SDS011;41626;53.098;6.168;2023-04-03T03:06:22;3.10;;;1.20;;
55720;SDS011;41626;53.098;6.168;2023-04-03T03:08:48;4.68;;;1.35;;
55720;SDS011;41626;53.098;6.168;2023-04-03T03:11:14;4.95;;;1.40;;
55720;SDS011;41626;53.098;6.168;2023-04-03T03:13:40;5.50;;;1.97;;
55720;SDS011;41626;53.098;6.168;2023-04-03T03:16:05;4.80;;;1.43;;
55720;SDS011;41626;53.098;6.168;2023-04-03T03:18:32;3.40;;;1.13;;
55720;SDS011;41626;53.098;6.168;2023-04-03T03:20:59;7.43;;;1.85;;
55720;SDS011;41626;53.098;6.168;2023-04-03T03:23:27;4.88;;;1.48;;
55720;SDS011;41626;53.098;6.168;2023-04-03T03:25:58;4.97;;;2.10;;
55720;SDS011;41626;53.098;6.168;2023-04-03T03:28:25;7.47;;;1.73;;
55720;SDS011;41626;53.098;6.168;2023-04-03T03:30:51;4.90;;;1.50;;
55720;SDS011;41626;53.098;6.168;2023-04-03T03:33:17;6.77;;;2.03;;
55720;SDS011;41626;53.098;6.168;2023-04-03T03:35:43;5.03;;;1.48;;
55720;SDS011;41626;53.098;6.168;2023-04-03T03:38:09;7.28;;;2.20;;
55720;SDS011;41626;53.098;6.168;2023-04-03T03:40:35;5.10;;;1.80;;
55720;SDS011;41626;53.098;6.168;2023-04-03T03:43:00;7.67;;;2.13;;
55720;SDS011;41626;53.098;6.168;2023-04-03T03:45:26;4.57;;;1.40;;
55720;SDS011;41626;53.098;6.168;2023-04-03T03:47:52;6.63;;;2.17;;
55720;SDS011;41626;53.098;6.168;2023-04-03T03:50:17;4.03;;;1.70;;
55720;SDS011;41626;53.098;6.168;2023-04-03T03:52:43;4.65;;;1.85;;
55720;SDS011;41626;53.098;6.168;2023-04-03T03:55:09;5.07;;;1.83;;
55720;SDS011;41626;53.098;6.168;2023-04-03T03:57:35;4.23;;;1.77;;
55720;SDS011;41626;53.098;6.168;2023-04-03T04:00:01;8.85;;;1.85;;
55720;SDS011;41626;53.098;6.168;2023-04-03T04:02:28;4.55;;;1.55;;
55720;SDS011;41626;53.098;6.168;2023-04-03T04:04:54;4.10;;;1.50;;
55720;SDS011;41626;53.098;6.168;2023-04-03T04:07:20;4.47;;;1.23;;
55720;SDS011;41626;53.098;6.168;2023-04-03T04:09:45;4.90;;;1.88;;
55720;SDS011;41626;53.098;6.168;2023-04-03T04:12:11;6.35;;;2.20;;
55720;SDS011;41626;53.098;6.168;2023-04-03T04:14:36;6.20;;;2.00;;
55720;SDS011;41626;53.098;6.168;2023-04-03T04:17:02;6.13;;;1.33;;
55720;SDS011;41626;53.098;6.168;2023-04-03T04:19:28;5.00;;;1.52;;
55720;SDS011;41626;53.098;6.168;2023-04-03T04:21:54;4.93;;;1.38;;
55720;SDS011;41626;53.098;6.168;2023-04-03T04:24:19;4.07;;;2.20;;
55720;SDS011;41626;53.098;6.168;2023-04-03T04:26:45;4.70;;;1.37;;
55720;SDS011;41626;53.098;6.168;2023-04-03T04:29:11;4.83;;;1.70;;
55720;SDS011;41626;53.098;6.168;2023-04-03T04:31:36;7.20;;;2.67;;
55720;SDS011;41626;53.098;6.168;2023-04-03T04:34:02;5.63;;;1.90;;
55720;SDS011;41626;53.098;6.168;2023-04-03T04:36:27;6.90;;;1.27;;
55720;SDS011;41626;53.098;6.168;2023-04-03T04:38:53;6.47;;;2.10;;
55720;SDS011;41626;53.098;6.168;2023-04-03T04:41:20;3.78;;;1.70;;
55720;SDS011;41626;53.098;6.168;2023-04-03T04:43:47;4.65;;;2.03;;
55720;SDS011;41626;53.098;6.168;2023-04-03T04:46:14;5.32;;;2.10;;
55720;SDS011;41626;53.098;6.168;2023-04-03T04:48:40;5.95;;;2.28;;
55720;SDS011;41626;53.098;6.168;2023-04-03T04:51:06;6.50;;;1.90;;
55720;SDS011;41626;53.098;6.168;2023-04-03T04:53:32;8.68;;;2.80;;
55720;SDS011;41626;53.098;6.168;2023-04-03T04:55:58;5.10;;;2.10;;
55720;SDS011;41626;53.098;6.168;2023-04-03T04:58:23;5.30;;;2.30;;
55720;SDS011;41626;53.098;6.168;2023-04-03T05:00:57;6.10;;;1.73;;
55720;SDS011;41626;53.098;6.168;2023-04-03T05:03:27;5.15;;;2.30;;
55720;SDS011;41626;53.098;6.168;2023-04-03T05:05:53;7.70;;;2.55;;
55720;SDS011;41626;53.098;6.168;2023-04-03T05:08:18;5.90;;;1.87;;
55720;SDS011;41626;53.098;6.168;2023-04-03T05:10:45;5.60;;;1.90;;
55720;SDS011;41626;53.098;6.168;2023-04-03T05:13:11;8.70;;;3.05;;
55720;SDS011;41626;53.098;6.168;2023-04-03T05:15:37;8.18;;;2.97;;
55720;SDS011;41626;53.098;6.168;2023-04-03T05:18:03;8.60;;;2.30;;
55720;SDS011;41626;53.098;6.168;2023-04-03T05:20:29;7.93;;;2.53;;
55720;SDS011;41626;53.098;6.168;2023-04-03T05:22:56;7.85;;;2.28;;
55720;SDS011;41626;53.098;6.168;2023-04-03T05:25:21;8.03;;;2.70;;
55720;SDS011;41626;53.098;6.168;2023-04-03T05:27:47;8.33;;;2.27;;
55720;SDS011;41626;53.098;6.168;2023-04-03T05:30:12;5.03;;;2.03;;
55720;SDS011;41626;53.098;6.168;2023-04-03T05:32:38;8.15;;;3.03;;
55720;SDS011;41626;53.098;6.168;2023-04-03T05:35:05;6.87;;;2.37;;
55720;SDS011;41626;53.098;6.168;2023-04-03T05:37:32;7.65;;;2.58;;
55720;SDS011;41626;53.098;6.168;2023-04-03T05:39:58;6.88;;;1.90;;
55720;SDS011;41626;53.098;6.168;2023-04-03T05:42:24;9.75;;;2.60;;
55720;SDS011;41626;53.098;6.168;2023-04-03T05:44:50;8.93;;;3.15;;
55720;SDS011;41626;53.098;6.168;2023-04-03T05:47:16;6.53;;;2.28;;
55720;SDS011;41626;53.098;6.168;2023-04-03T05:49:42;5.65;;;2.60;;
55720;SDS011;41626;53.098;6.168;2023-04-03T05:52:29;7.15;;;2.60;;
55720;SDS011;41626;53.098;6.168;2023-04-03T05:54:58;6.45;;;2.22;;
55720;SDS011;41626;53.098;6.168;2023-04-03T05:57:23;4.50;;;1.87;;
55720;SDS011;41626;53.098;6.168;2023-04-03T05:59:49;8.23;;;3.03;;
55720;SDS011;41626;53.098;6.168;2023-04-03T06:02:16;10.68;;;2.28;;
55720;SDS011;41626;53.098;6.168;2023-04-03T06:04:43;7.15;;;2.72;;
55720;SDS011;41626;53.098;6.168;2023-04-03T06:07:13;6.18;;;2.42;;
55720;SDS011;41626;53.098;6.168;2023-04-03T06:09:41;8.63;;;2.13;;
55720;SDS011;41626;53.098;6.168;2023-04-03T06:12:07;8.50;;;2.80;;
55720;SDS011;41626;53.098;6.168;2023-04-03T06:14:33;7.88;;;2.85;;
55720;SDS011;41626;53.098;6.168;2023-04-03T06:16:59;7.15;;;2.58;;
55720;SDS011;41626;53.098;6.168;2023-04-03T06:19:25;7.32;;;2.53;;
55720;SDS011;41626;53.098;6.168;2023-04-03T06:21:51;6.75;;;2.15;;
55720;SDS011;41626;53.098;6.168;2023-04-03T06:24:17;5.85;;;2.17;;
55720;SDS011;41626;53.098;6.168;2023-04-03T06:26:43;9.20;;;2.42;;
55720;SDS011;41626;53.098;6.168;2023-04-03T06:29:09;6.73;;;2.50;;
55720;SDS011;41626;53.098;6.168;2023-04-03T06:31:35;8.45;;;2.40;;
55720;SDS011;41626;53.098;6.168;2023-04-03T06:34:04;7.65;;;2.47;;
55720;SDS011;41626;53.098;6.168;2023-04-03T06:36:32;6.40;;;2.30;;
55720;SDS011;41626;53.098;6.168;2023-04-03T06:38:58;8.82;;;2.63;;
55720;SDS011;41626;53.098;6.168;2023-04-03T06:41:23;10.77;;;4.03;;
55720;SDS011;41626;53.098;6.168;2023-04-03T06:43:50;7.93;;;2.70;;
55720;SDS011;41626;53.098;6.168;2023-04-03T06:46:16;8.23;;;3.50;;
55720;SDS011;41626;53.098;6.168;2023-04-03T06:48:44;5.65;;;2.53;;
55720;SDS011;41626;53.098;6.168;2023-04-03T06:51:20;9.13;;;3.58;;
55720;SDS011;41626;53.098;6.168;2023-04-03T06:53:52;6.85;;;2.28;;
55720;SDS011;41626;53.098;6.168;2023-04-03T06:56:19;9.77;;;2.92;;
55720;SDS011;41626;53.098;6.168;2023-04-03T06:58:46;8.93;;;2.88;;
55720;SDS011;41626;53.098;6.168;2023-04-03T07:01:12;8.70;;;3.33;;
55720;SDS011;41626;53.098;6.168;2023-04-03T07:03:39;5.65;;;2.28;;
55720;SDS011;41626;53.098;6.168;2023-04-03T07:06:05;8.27;;;3.25;;
55720;SDS011;41626;53.098;6.168;2023-04-03T07:08:32;8.32;;;3.28;;
55720;SDS011;41626;53.098;6.168;2023-04-03T07:10:59;9.30;;;3.00;;
55720;SDS011;41626;53.098;6.168;2023-04-03T07:13:25;6.63;;;2.35;;
55720;SDS011;41626;53.098;6.168;2023-04-03T07:15:51;8.00;;;2.88;;
55720;SDS011;41626;53.098;6.168;2023-04-03T07:18:17;7.32;;;2.90;;
55720;SDS011;41626;53.098;6.168;2023-04-03T07:20:43;6.37;;;2.20;;
55720;SDS011;41626;53.098;6.168;2023-04-03T07:23:09;7.13;;;2.83;;
55720;SDS011;41626;53.098;6.168;2023-04-03T07:25:35;6.65;;;3.42;;
55720;SDS011;41626;53.098;6.168;2023-04-03T07:28:01;7.80;;;2.47;;
55720;SDS011;41626;53.098;6.168;2023-04-03T07:30:27;8.37;;;3.47;;
55720;SDS011;41626;53.098;6.168;2023-04-03T07:32:52;8.57;;;2.77;;
55720;SDS011;41626;53.098;6.168;2023-04-03T07:35:18;7.43;;;2.53;;
55720;SDS011;41626;53.098;6.168;2023-04-03T07:37:44;5.50;;;1.90;;
55720;SDS011;41626;53.098;6.168;2023-04-03T07:40:10;5.80;;;1.88;;
55720;SDS011;41626;53.098;6.168;2023-04-03T07:42:35;7.80;;;2.13;;
55720;SDS011;41626;53.098;6.168;2023-04-03T07:45:02;6.37;;;2.90;;
55720;SDS011;41626;53.098;6.168;2023-04-03T07:47:29;6.82;;;1.80;;
55720;SDS011;41626;53.098;6.168;2023-04-03T07:49:56;3.93;;;2.10;;
55720;SDS011;41626;53.098;6.168;2023-04-03T07:52:22;5.53;;;1.75;;
55720;SDS011;41626;53.098;6.168;2023-04-03T07:54:48;7.63;;;1.90;;
55720;SDS011;41626;53.098;6.168;2023-04-03T07:57:14;5.78;;;2.22;;
55720;SDS011;41626;53.098;6.168;2023-04-03T07:59:40;5.13;;;2.60;;
55720;SDS011;41626;53.098;6.168;2023-04-03T08:02:10;4.80;;;1.60;;
55720;SDS011;41626;53.098;6.168;2023-04-03T08:04:36;4.82;;;2.45;;
55720;SDS011;41626;53.098;6.168;2023-04-03T08:07:02;3.90;;;1.80;;
55720;SDS011;41626;53.098;6.168;2023-04-03T08:09:28;4.95;;;1.60;;
55720;SDS011;41626;53.098;6.168;2023-04-03T08:11:54;5.70;;;1.92;;
55720;SDS011;41626;53.098;6.168;2023-04-03T08:14:20;2.70;;;1.23;;
55720;SDS011;41626;53.098;6.168;2023-04-03T08:16:46;5.40;;;2.07;;
55720;SDS011;41626;53.098;6.168;2023-04-03T08:19:14;5.13;;;2.42;;
55720;SDS011;41626;53.098;6.168;2023-04-03T08:21:42;6.18;;;1.67;;
55720;SDS011;41626;53.098;6.168;2023-04-03T08:24:08;2.95;;;1.23;;
55720;SDS011;41626;53.098;6.168;2023-04-03T08:26:34;6.18;;;1.58;;
55720;SDS011;41626;53.098;6.168;2023-04-03T08:29:00;4.35;;;1.20;;
55720;SDS011;41626;53.098;6.168;2023-04-03T08:31:25;5.10;;;1.67;;
55720;SDS011;41626;53.098;6.168;2023-04-03T08:33:51;3.83;;;1.60;;
55720;SDS011;41626;53.098;6.168;2023-04-03T08:36:19;3.70;;;1.30;;
55720;SDS011;41626;53.098;6.168;2023-04-03T08:38:50;5.38;;;1.40;;
55720;SDS011;41626;53.098;6.168;2023-04-03T08:41:29;3.70;;;1.17;;
55720;SDS011;41626;53.098;6.168;2023-04-03T08:49:31;4.68;;;1.25;;
55720;SDS011;41626;53.098;6.168;2023-04-03T08:52:00;3.78;;;1.00;;
55720;SDS011;41626;53.098;6.168;2023-04-03T08:54:32;3.35;;;0.88;;
55720;SDS011;41626;53.098;6.168;2023-04-03T08:57:01;2.70;;;0.90;;
55720;SDS011;41626;53.098;6.168;2023-04-03T08:59:31;2.53;;;1.10;;
55720;SDS011;41626;53.098;6.168;2023-04-03T09:02:00;4.15;;;1.20;;
55720;SDS011;41626;53.098;6.168;2023-04-03T09:04:31;2.38;;;0.95;;
55720;SDS011;41626;53.098;6.168;2023-04-03T09:07:02;2.15;;;0.90;;
55720;SDS011;41626;53.098;6.168;2023-04-03T09:14:48;3.67;;;1.10;;
55720;SDS011;41626;53.098;6.168;2023-04-03T09:17:57;2.75;;;0.70;;
55720;SDS011;41626;53.098;6.168;2023-04-03T09:26:04;2.72;;;0.80;;
55720;SDS011;41626;53.098;6.168;2023-04-03T09:28:35;6.57;;;1.75;;
55720;SDS011;41626;53.098;6.168;2023-04-03T09:31:16;3.78;;;0.88;;
55720;SDS011;41626;53.098;6.168;2023-04-03T09:33:56;2.63;;;0.88;;
55720;SDS011;41626;53.098;6.168;2023-04-03T09:36:37;2.88;;;0.82;;
55720;SDS011;41626;53.098;6.168;2023-04-03T09:39:04;2.55;;;0.98;;
55720;SDS011;41626;53.098;6.168;2023-04-03T09:41:41;5.53;;;1.15;;
55720;SDS011;41626;53.098;6.168;2023-04-03T09:44:23;2.85;;;1.00;;
55720;SDS011;41626;53.098;6.168;2023-04-03T09:46:51;3.92;;;1.20;;
55720;SDS011;41626;53.098;6.168;2023-04-03T09:49:17;2.42;;;0.80;;
55720;SDS011;41626;53.098;6.168;2023-04-03T09:51:43;4.78;;;1.30;;
55720;SDS011;41626;53.098;6.168;2023-04-03T09:57:09;2.20;;;1.02;;
55720;SDS011;41626;53.098;6.168;2023-04-03T09:59:38;1.90;;;0.80;;
55720;SDS011;41626;53.098;6.168;2023-04-03T10:08:07;2.33;;;0.60;;
55720;SDS011;41626;53.098;6.168;2023-04-03T10:10:43;2.45;;;0.90;;
55720;SDS011;41626;53.098;6.168;2023-04-03T10:13:12;6.22;;;1.10;;
55720;SDS011;41626;53.098;6.168;2023-04-03T10:15:50;4.60;;;0.85;;
55720;SDS011;41626;53.098;6.168;2023-04-03T10:21:33;2.28;;;0.75;;
55720;SDS011;41626;53.098;6.168;2023-04-03T10:24:11;3.50;;;1.00;;
55720;SDS011;41626;53.098;6.168;2023-04-03T10:38:03;1.70;;;0.90;;
55720;SDS011;41626;53.098;6.168;2023-04-03T10:41:04;3.40;;;0.60;;
55720;SDS011;41626;53.098;6.168;2023-04-03T10:43:40;2.53;;;0.70;;
55720;SDS011;41626;53.098;6.168;2023-04-03T10:56:45;1.58;;;0.50;;
55720;SDS011;41626;53.098;6.168;2023-04-03T11:02:01;3.88;;;1.00;;
55720;SDS011;41626;53.098;6.168;2023-04-03T11:04:44;3.10;;;0.60;;
55720;SDS011;41626;53.098;6.168;2023-04-03T11:09:44;2.00;;;0.85;;
55720;SDS011;41626;53.098;6.168;2023-04-03T11:12:33;2.00;;;0.65;;
55720;SDS011;41626;53.098;6.168;2023-04-03T11:15:25;4.05;;;0.60;;
55720;SDS011;41626;53.098;6.168;2023-04-03T11:17:58;2.70;;;0.63;;
55720;SDS011;41626;53.098;6.168;2023-04-03T11:20:31;2.33;;;0.82;;
55720;SDS011;41626;53.098;6.168;2023-04-03T11:25:56;2.72;;;0.70;;
55720;SDS011;41626;53.098;6.168;2023-04-03T11:28:35;4.87;;;0.90;;
55720;SDS011;41626;53.098;6.168;2023-04-03T11:31:06;3.33;;;0.75;;
55720;SDS011;41626;53.098;6.168;2023-04-03T11:33:51;2.35;;;0.60;;
55720;SDS011;41626;53.098;6.168;2023-04-03T11:36:48;2.65;;;0.40;;
55720;SDS011;41626;53.098;6.168;2023-04-03T11:41:48;2.20;;;0.60;;
55720;SDS011;41626;53.098;6.168;2023-04-03T11:47:02;1.70;;;0.50;;
55720;SDS011;41626;53.098;6.168;2023-04-03T12:26:50;2.90;;;0.77;;
55720;SDS011;41626;53.098;6.168;2023-04-03T12:48:37;2.75;;;0.80;;
55720;SDS011;41626;53.098;6.168;2023-04-03T12:51:24;2.50;;;0.90;;
55720;SDS011;41626;53.098;6.168;2023-04-03T12:54:04;1.95;;;0.60;;
55720;SDS011;41626;53.098;6.168;2023-04-03T12:57:12;1.98;;;0.77;;
55720;SDS011;41626;53.098;6.168;2023-04-03T12:59:42;3.80;;;1.77;;
55720;SDS011;41626;53.098;6.168;2023-04-03T13:02:15;1.80;;;0.70;;
55720;SDS011;41626;53.098;6.168;2023-04-03T13:04:57;3.93;;;0.70;;
55720;SDS011;41626;53.098;6.168;2023-04-03T13:07:31;2.95;;;1.13;;
55720;SDS011;41626;53.098;6.168;2023-04-03T13:12:56;3.35;;;0.95;;
55720;SDS011;41626;53.098;6.168;2023-04-03T13:18:20;1.95;;;1.00;;
55720;SDS011;41626;53.098;6.168;2023-04-03T13:21:03;2.60;;;0.90;;
55720;SDS011;41626;53.098;6.168;2023-04-03T13:23:32;2.15;;;0.70;;
55720;SDS011;41626;53.098;6.168;2023-04-03T13:26:01;2.45;;;1.00;;
55720;SDS011;41626;53.098;6.168;2023-04-03T13:28:28;4.03;;;1.30;;
55720;SDS011;41626;53.098;6.168;2023-04-03T13:33:28;5.18;;;1.35;;
55720;SDS011;41626;53.098;6.168;2023-04-03T13:36:07;4.57;;;1.30;;
55720;SDS011;41626;53.098;6.168;2023-04-03T13:46:42;2.10;;;0.98;;
55720;SDS011;41626;53.098;6.168;2023-04-03T13:51:55;2.10;;;0.98;;
55720;SDS011;41626;53.098;6.168;2023-04-03T13:56:57;3.13;;;1.48;;
55720;SDS011;41626;53.098;6.168;2023-04-03T13:59:25;3.45;;;1.05;;
55720;SDS011;41626;53.098;6.168;2023-04-03T14:04:33;3.58;;;1.15;;
55720;SDS011;41626;53.098;6.168;2023-04-03T14:07:10;2.65;;;1.10;;
55720;SDS011;41626;53.098;6.168;2023-04-03T14:09:39;3.85;;;1.15;;
55720;SDS011;41626;53.098;6.168;2023-04-03T14:12:07;1.77;;;0.70;;
55720;SDS011;41626;53.098;6.168;2023-04-03T14:14:38;2.40;;;0.73;;
55720;SDS011;41626;53.098;6.168;2023-04-03T14:17:19;2.37;;;0.77;;
55720;SDS011;41626;53.098;6.168;2023-04-03T14:19:47;4.33;;;1.40;;
55720;SDS011;41626;53.098;6.168;2023-04-03T14:22:22;4.40;;;1.10;;
55720;SDS011;41626;53.098;6.168;2023-04-03T14:24:50;1.90;;;1.00;;
55720;SDS011;41626;53.098;6.168;2023-04-03T14:29:47;3.25;;;1.17;;
55720;SDS011;41626;53.098;6.168;2023-04-03T14:32:15;2.85;;;1.08;;
55720;SDS011;41626;53.098;6.168;2023-04-03T14:34:42;2.40;;;1.27;;
55720;SDS011;41626;53.098;6.168;2023-04-03T14:37:15;3.70;;;0.93;;
55720;SDS011;41626;53.098;6.168;2023-04-03T14:39:48;4.28;;;0.77;;
55720;SDS011;41626;53.098;6.168;2023-04-03T14:42:19;2.40;;;1.20;;
55720;SDS011;41626;53.098;6.168;2023-04-03T14:44:47;3.45;;;1.08;;
55720;SDS011;41626;53.098;6.168;2023-04-03T14:47:14;2.78;;;1.20;;
55720;SDS011;41626;53.098;6.168;2023-04-03T14:49:42;3.40;;;1.20;;
55720;SDS011;41626;53.098;6.168;2023-04-03T14:54:47;3.63;;;1.00;;
55720;SDS011;41626;53.098;6.168;2023-04-03T14:57:14;3.17;;;0.88;;
55720;SDS011;41626;53.098;6.168;2023-04-03T14:59:41;1.40;;;0.57;;
55720;SDS011;41626;53.098;6.168;2023-04-03T15:02:27;1.92;;;0.80;;
55720;SDS011;41626;53.098;6.168;2023-04-03T15:04:58;1.25;;;0.63;;
55720;SDS011;41626;53.098;6.168;2023-04-03T15:07:26;4.38;;;1.35;;
55720;SDS011;41626;53.098;6.168;2023-04-03T15:09:53;3.13;;;0.80;;
55720;SDS011;41626;53.098;6.168;2023-04-03T15:12:22;3.72;;;1.30;;
55720;SDS011;41626;53.098;6.168;2023-04-03T15:14:48;4.65;;;1.20;;
55720;SDS011;41626;53.098;6.168;2023-04-03T15:17:15;5.57;;;2.00;;
55720;SDS011;41626;53.098;6.168;2023-04-03T15:19:45;3.90;;;1.98;;
55720;SDS011;41626;53.098;6.168;2023-04-03T15:22:14;2.15;;;1.00;;
55720;SDS011;41626;53.098;6.168;2023-04-03T15:24:42;4.68;;;1.90;;
55720;SDS011;41626;53.098;6.168;2023-04-03T15:27:08;4.72;;;1.25;;
55720;SDS011;41626;53.098;6.168;2023-04-03T15:29:35;4.00;;;1.15;;
55720;SDS011;41626;53.098;6.168;2023-04-03T15:32:01;2.23;;;1.03;;
55720;SDS011;41626;53.098;6.168;2023-04-03T15:34:27;3.92;;;1.42;;
55720;SDS011;41626;53.098;6.168;2023-04-03T15:36:53;3.07;;;1.23;;
55720;SDS011;41626;53.098;6.168;2023-04-03T15:39:19;3.27;;;1.53;;
55720;SDS011;41626;53.098;6.168;2023-04-03T15:41:45;2.65;;;0.80;;
55720;SDS011;41626;53.098;6.168;2023-04-03T15:44:11;1.83;;;0.80;;
55720;SDS011;41626;53.098;6.168;2023-04-03T15:46:38;3.42;;;1.30;;
55720;SDS011;41626;53.098;6.168;2023-04-03T15:49:04;6.03;;;1.02;;
55720;SDS011;41626;53.098;6.168;2023-04-03T15:51:30;3.65;;;1.50;;
55720;SDS011;41626;53.098;6.168;2023-04-03T15:53:56;2.65;;;0.82;;
55720;SDS011;41626;53.098;6.168;2023-04-03T15:56:22;3.30;;;1.20;;
55720;SDS011;41626;53.098;6.168;2023-04-03T15:58:48;3.40;;;1.53;;
55720;SDS011;41626;53.098;6.168;2023-04-03T16:01:14;2.40;;;1.20;;
55720;SDS011;41626;53.098;6.168;2023-04-03T16:03:40;2.83;;;0.90;;
55720;SDS011;41626;53.098;6.168;2023-04-03T16:06:11;4.47;;;1.27;;
55720;SDS011;41626;53.098;6.168;2023-04-03T16:08:38;3.38;;;1.13;;
55720;SDS011;41626;53.098;6.168;2023-04-03T16:11:03;2.83;;;1.20;;
55720;SDS011;41626;53.098;6.168;2023-04-03T16:13:29;1.70;;;0.70;;
55720;SDS011;41626;53.098;6.168;2023-04-03T16:15:56;3.03;;;0.90;;
55720;SDS011;41626;53.098;6.168;2023-04-03T16:18:22;4.82;;;1.20;;
55720;SDS011;41626;53.098;6.168;2023-04-03T16:20:47;2.50;;;0.90;;
55720;SDS011;41626;53.098;6.168;2023-04-03T16:23:13;3.58;;;1.38;;
55720;SDS011;41626;53.098;6.168;2023-04-03T16:25:39;2.38;;;0.88;;
55720;SDS011;41626;53.098;6.168;2023-04-03T16:28:10;3.83;;;0.90;;
55720;SDS011;41626;53.098;6.168;2023-04-03T16:30:37;2.55;;;0.95;;
55720;SDS011;41626;53.098;6.168;2023-04-03T16:33:04;1.92;;;0.80;;
55720;SDS011;41626;53.098;6.168;2023-04-03T16:35:29;3.88;;;0.85;;
55720;SDS011;41626;53.098;6.168;2023-04-03T16:37:55;1.50;;;0.52;;
55720;SDS011;41626;53.098;6.168;2023-04-03T16:40:20;2.30;;;0.82;;
55720;SDS011;41626;53.098;6.168;2023-04-03T16:42:46;2.97;;;0.80;;
55720;SDS011;41626;53.098;6.168;2023-04-03T16:45:12;4.38;;;1.00;;
55720;SDS011;41626;53.098;6.168;2023-04-03T16:47:38;2.55;;;0.63;;
55720;SDS011;41626;53.098;6.168;2023-04-03T16:50:04;3.20;;;0.95;;
55720;SDS011;41626;53.098;6.168;2023-04-03T16:52:30;1.77;;;0.60;;
55720;SDS011;41626;53.098;6.168;2023-04-03T16:54:55;2.07;;;0.93;;
55720;SDS011;41626;53.098;6.168;2023-04-03T16:57:23;2.92;;;1.05;;
55720;SDS011;41626;53.098;6.168;2023-04-03T16:59:50;2.75;;;1.00;;
55720;SDS011;41626;53.098;6.168;2023-04-03T17:02:16;3.03;;;0.95;;
55720;SDS011;41626;53.098;6.168;2023-04-03T17:04:42;2.92;;;1.05;;
55720;SDS011;41626;53.098;6.168;2023-04-03T17:07:07;2.05;;;0.80;;
55720;SDS011;41626;53.098;6.168;2023-04-03T17:09:33;2.97;;;1.00;;
55720;SDS011;41626;53.098;6.168;2023-04-03T17:11:59;2.05;;;0.70;;
55720;SDS011;41626;53.098;6.168;2023-04-03T17:14:25;4.20;;;1.23;;
55720;SDS011;41626;53.098;6.168;2023-04-03T17:16:51;3.40;;;0.90;;
55720;SDS011;41626;53.098;6.168;2023-04-03T17:19:17;2.97;;;1.00;;
55720;SDS011;41626;53.098;6.168;2023-04-03T17:21:43;1.73;;;0.90;;
55720;SDS011;41626;53.098;6.168;2023-04-03T17:24:10;1.80;;;0.77;;
55720;SDS011;41626;53.098;6.168;2023-04-03T17:26:38;2.95;;;1.00;;
55720;SDS011;41626;53.098;6.168;2023-04-03T17:29:05;2.85;;;1.00;;
55720;SDS011;41626;53.098;6.168;2023-04-03T17:31:31;3.97;;;1.20;;
55720;SDS011;41626;53.098;6.168;2023-04-03T17:33:57;3.22;;;1.23;;